sensor_id;sensor_type;location;lat;lon;timestamp;P1;durP1;ratioP1;P2;durP2;ratioP2
75062;SDS011;63981;51.052;13.754;2023-01-05T00:01:17;0.77;;;0.20;;
75062;SDS011;63981;51.052;13.754;2023-01-05T00:03:43;1.60;;;0.32;;
75062;SDS011;63981;51.052;13.754;2023-01-05T00:06:10;2.45;;;0.30;;
75062;SDS011;63981;51.052;13.754;2023-01-05T00:08:38;1.50;;;0.20;;
75062;SDS011;63981;51.052;13.754;2023-01-05T00:13:50;0.75;;;0.30;;
75062;SDS011;63981;51.052;13.754;2023-01-05T00:16:35;0.25;;;0.20;;
75062;SDS011;63981;51.052;13.754;2023-01-05T00:19:19;2.08;;;0.30;;
75062;SDS011;63981;51.052;13.754;2023-01-05T00:22:09;3.25;;;0.40;;
75062;SDS011;63981;51.052;13.754;2023-01-05T00:27:30;3.33;;;0.50;;
75062;SDS011;63981;51.052;13.754;2023-01-05T00:29:56;2.58;;;0.30;;
75062;SDS011;63981;51.052;13.754;2023-01-05T00:32:22;1.85;;;0.30;;
75062;SDS011;63981;51.052;13.754;2023-01-05T00:34:48;2.22;;;0.40;;
75062;SDS011;63981;51.052;13.754;2023-01-05T00:37:15;3.13;;;0.40;;
75062;SDS011;63981;51.052;13.754;2023-01-05T00:39:42;4.55;;;0.68;;
75062;SDS011;63981;51.052;13.754;2023-01-05T00:42:07;1.80;;;0.38;;
75062;SDS011;63981;51.052;13.754;2023-01-05T00:44:33;4.63;;;0.63;;
75062;SDS011;63981;51.052;13.754;2023-01-05T00:46:59;2.28;;;0.30;;
75062;SDS011;63981;51.052;13.754;2023-01-05T00:49:25;2.63;;;0.45;;
75062;SDS011;63981;51.052;13.754;2023-01-05T00:51:51;0.90;;;0.20;;
75062;SDS011;63981;51.052;13.754;2023-01-05T00:54:16;1.38;;;0.28;;
75062;SDS011;63981;51.052;13.754;2023-01-05T00:56:42;1.83;;;0.30;;
75062;SDS011;63981;51.052;13.754;2023-01-05T00:59:08;4.28;;;0.40;;
75062;SDS011;63981;51.052;13.754;2023-01-05T01:01:34;2.00;;;0.40;;
75062;SDS011;63981;51.052;13.754;2023-01-05T01:04:00;2.40;;;0.47;;
75062;SDS011;63981;51.052;13.754;2023-01-05T01:06:26;2.60;;;0.50;;
75062;SDS011;63981;51.052;13.754;2023-01-05T01:08:52;1.88;;;0.30;;
75062;SDS011;63981;51.052;13.754;2023-01-05T01:11:18;1.27;;;0.45;;
75062;SDS011;63981;51.052;13.754;2023-01-05T01:13:44;2.78;;;0.40;;
75062;SDS011;63981;51.052;13.754;2023-01-05T01:16:11;1.35;;;0.20;;
75062;SDS011;63981;51.052;13.754;2023-01-05T01:18:39;0.65;;;0.30;;
75062;SDS011;63981;51.052;13.754;2023-01-05T01:21:06;2.15;;;0.30;;
75062;SDS011;63981;51.052;13.754;2023-01-05T01:23:33;2.28;;;0.40;;
75062;SDS011;63981;51.052;13.754;2023-01-05T01:26:03;4.32;;;0.63;;
75062;SDS011;63981;51.052;13.754;2023-01-05T01:28:30;0.95;;;0.30;;
75062;SDS011;63981;51.052;13.754;2023-01-05T01:30:56;3.38;;;0.40;;
75062;SDS011;63981;51.052;13.754;2023-01-05T01:33:23;4.45;;;0.57;;
75062;SDS011;63981;51.052;13.754;2023-01-05T01:35:49;2.30;;;0.30;;
75062;SDS011;63981;51.052;13.754;2023-01-05T01:38:14;2.58;;;0.47;;
75062;SDS011;63981;51.052;13.754;2023-01-05T01:40:41;3.15;;;0.65;;
75062;SDS011;63981;51.052;13.754;2023-01-05T01:43:19;1.55;;;0.38;;
75062;SDS011;63981;51.052;13.754;2023-01-05T01:46:05;2.45;;;0.45;;
75062;SDS011;63981;51.052;13.754;2023-01-05T01:48:32;1.63;;;0.32;;
75062;SDS011;63981;51.052;13.754;2023-01-05T01:51:01;4.30;;;0.50;;
75062;SDS011;63981;51.052;13.754;2023-01-05T01:53:34;2.53;;;0.80;;
75062;SDS011;63981;51.052;13.754;2023-01-05T01:56:15;1.17;;;0.30;;
75062;SDS011;63981;51.052;13.754;2023-01-05T01:58:43;5.35;;;0.95;;
75062;SDS011;63981;51.052;13.754;2023-01-05T02:01:10;4.40;;;0.95;;
75062;SDS011;63981;51.052;13.754;2023-01-05T02:03:37;5.70;;;0.93;;
75062;SDS011;63981;51.052;13.754;2023-01-05T02:06:03;3.70;;;0.50;;
75062;SDS011;63981;51.052;13.754;2023-01-05T02:08:29;3.47;;;0.50;;
75062;SDS011;63981;51.052;13.754;2023-01-05T02:11:01;3.85;;;0.73;;
75062;SDS011;63981;51.052;13.754;2023-01-05T02:13:52;3.60;;;0.80;;
75062;SDS011;63981;51.052;13.754;2023-01-05T02:27:39;3.33;;;0.55;;
75062;SDS011;63981;51.052;13.754;2023-01-05T02:30:21;3.60;;;0.63;;
75062;SDS011;63981;51.052;13.754;2023-01-05T02:33:28;4.22;;;1.00;;
75062;SDS011;63981;51.052;13.754;2023-01-05T02:36:13;2.42;;;0.47;;
75062;SDS011;63981;51.052;13.754;2023-01-05T02:38:55;4.40;;;0.65;;
75062;SDS011;63981;51.052;13.754;2023-01-05T02:41:37;4.30;;;0.70;;
75062;SDS011;63981;51.052;13.754;2023-01-05T02:44:08;2.28;;;1.00;;
75062;SDS011;63981;51.052;13.754;2023-01-05T02:46:35;2.90;;;0.60;;
75062;SDS011;63981;51.052;13.754;2023-01-05T02:49:01;3.97;;;0.82;;
75062;SDS011;63981;51.052;13.754;2023-01-05T02:54:11;4.07;;;0.65;;
75062;SDS011;63981;51.052;13.754;2023-01-05T02:56:47;4.10;;;0.63;;
75062;SDS011;63981;51.052;13.754;2023-01-05T02:59:19;3.55;;;0.55;;
75062;SDS011;63981;51.052;13.754;2023-01-05T03:01:51;5.25;;;0.77;;
75062;SDS011;63981;51.052;13.754;2023-01-05T03:04:24;3.22;;;0.73;;
75062;SDS011;63981;51.052;13.754;2023-01-05T03:07:03;3.35;;;0.73;;
75062;SDS011;63981;51.052;13.754;2023-01-05T03:09:33;3.78;;;1.08;;
75062;SDS011;63981;51.052;13.754;2023-01-05T03:12:09;3.35;;;1.08;;
75062;SDS011;63981;51.052;13.754;2023-01-05T03:15:00;3.72;;;0.90;;
75062;SDS011;63981;51.052;13.754;2023-01-05T03:17:33;5.22;;;0.82;;
75062;SDS011;63981;51.052;13.754;2023-01-05T03:20:09;4.32;;;1.05;;
75062;SDS011;63981;51.052;13.754;2023-01-05T03:22:38;4.00;;;0.60;;
75062;SDS011;63981;51.052;13.754;2023-01-05T03:25:26;4.68;;;1.10;;
75062;SDS011;63981;51.052;13.754;2023-01-05T03:28:14;2.53;;;0.80;;
75062;SDS011;63981;51.052;13.754;2023-01-05T03:37:26;5.55;;;0.93;;
75062;SDS011;63981;51.052;13.754;2023-01-05T03:39:58;4.05;;;0.90;;
75062;SDS011;63981;51.052;13.754;2023-01-05T03:42:27;4.20;;;0.65;;
75062;SDS011;63981;51.052;13.754;2023-01-05T03:47:21;5.47;;;1.10;;
75062;SDS011;63981;51.052;13.754;2023-01-05T03:49:47;3.40;;;0.80;;
75062;SDS011;63981;51.052;13.754;2023-01-05T03:52:14;7.38;;;1.10;;
75062;SDS011;63981;51.052;13.754;2023-01-05T03:54:41;6.65;;;0.75;;
75062;SDS011;63981;51.052;13.754;2023-01-05T03:57:07;3.38;;;1.17;;
75062;SDS011;63981;51.052;13.754;2023-01-05T03:59:33;4.65;;;1.02;;
75062;SDS011;63981;51.052;13.754;2023-01-05T04:01:59;4.63;;;0.90;;
75062;SDS011;63981;51.052;13.754;2023-01-05T04:04:26;5.18;;;1.23;;
75062;SDS011;63981;51.052;13.754;2023-01-05T04:06:52;5.25;;;1.10;;
75062;SDS011;63981;51.052;13.754;2023-01-05T04:09:18;5.30;;;1.20;;
75062;SDS011;63981;51.052;13.754;2023-01-05T04:11:44;4.50;;;0.77;;
75062;SDS011;63981;51.052;13.754;2023-01-05T04:14:11;4.63;;;1.00;;
75062;SDS011;63981;51.052;13.754;2023-01-05T04:16:38;3.72;;;1.20;;
75062;SDS011;63981;51.052;13.754;2023-01-05T04:19:11;6.05;;;1.15;;
75062;SDS011;63981;51.052;13.754;2023-01-05T04:21:37;4.40;;;1.20;;
75062;SDS011;63981;51.052;13.754;2023-01-05T04:24:04;5.47;;;0.98;;
75062;SDS011;63981;51.052;13.754;2023-01-05T04:26:33;3.72;;;1.17;;
75062;SDS011;63981;51.052;13.754;2023-01-05T04:28:58;3.50;;;0.80;;
75062;SDS011;63981;51.052;13.754;2023-01-05T04:31:24;3.38;;;0.65;;
75062;SDS011;63981;51.052;13.754;2023-01-05T04:36:21;6.38;;;0.93;;
75062;SDS011;63981;51.052;13.754;2023-01-05T04:38:47;4.70;;;1.23;;
75062;SDS011;63981;51.052;13.754;2023-01-05T04:41:14;5.32;;;1.08;;
75062;SDS011;63981;51.052;13.754;2023-01-05T04:43:44;4.20;;;1.10;;
75062;SDS011;63981;51.052;13.754;2023-01-05T04:46:12;5.03;;;0.90;;
75062;SDS011;63981;51.052;13.754;2023-01-05T04:48:38;5.32;;;0.82;;
75062;SDS011;63981;51.052;13.754;2023-01-05T04:51:04;4.18;;;0.90;;
75062;SDS011;63981;51.052;13.754;2023-01-05T04:53:33;3.83;;;1.20;;
75062;SDS011;63981;51.052;13.754;2023-01-05T04:56:00;4.10;;;1.13;;
75062;SDS011;63981;51.052;13.754;2023-01-05T04:58:31;4.63;;;0.80;;
75062;SDS011;63981;51.052;13.754;2023-01-05T05:00:57;4.88;;;0.88;;
75062;SDS011;63981;51.052;13.754;2023-01-05T05:03:26;3.67;;;0.70;;
75062;SDS011;63981;51.052;13.754;2023-01-05T05:05:52;5.97;;;1.20;;
75062;SDS011;63981;51.052;13.754;2023-01-05T05:08:18;3.88;;;1.05;;
75062;SDS011;63981;51.052;13.754;2023-01-05T05:10:44;6.78;;;1.55;;
75062;SDS011;63981;51.052;13.754;2023-01-05T05:13:10;4.50;;;1.13;;
75062;SDS011;63981;51.052;13.754;2023-01-05T05:15:37;3.55;;;0.88;;
75062;SDS011;63981;51.052;13.754;2023-01-05T05:18:03;4.50;;;0.90;;
75062;SDS011;63981;51.052;13.754;2023-01-05T05:20:31;6.68;;;1.23;;
75062;SDS011;63981;51.052;13.754;2023-01-05T05:22:57;5.85;;;1.27;;
75062;SDS011;63981;51.052;13.754;2023-01-05T05:25:24;2.92;;;0.98;;
75062;SDS011;63981;51.052;13.754;2023-01-05T05:27:50;5.07;;;1.13;;
75062;SDS011;63981;51.052;13.754;2023-01-05T05:30:16;4.93;;;1.48;;
75062;SDS011;63981;51.052;13.754;2023-01-05T05:32:41;5.50;;;1.20;;
75062;SDS011;63981;51.052;13.754;2023-01-05T05:35:07;5.70;;;0.90;;
75062;SDS011;63981;51.052;13.754;2023-01-05T05:37:34;7.57;;;0.98;;
75062;SDS011;63981;51.052;13.754;2023-01-05T05:39:59;5.80;;;1.75;;
75062;SDS011;63981;51.052;13.754;2023-01-05T05:42:25;4.65;;;1.05;;
75062;SDS011;63981;51.052;13.754;2023-01-05T05:44:51;6.40;;;1.50;;
75062;SDS011;63981;51.052;13.754;2023-01-05T05:47:17;6.28;;;1.00;;
75062;SDS011;63981;51.052;13.754;2023-01-05T05:49:43;4.43;;;1.52;;
75062;SDS011;63981;51.052;13.754;2023-01-05T05:52:09;3.47;;;1.02;;
75062;SDS011;63981;51.052;13.754;2023-01-05T05:54:35;3.90;;;0.90;;
75062;SDS011;63981;51.052;13.754;2023-01-05T05:57:00;6.20;;;1.17;;
75062;SDS011;63981;51.052;13.754;2023-01-05T05:59:26;5.10;;;1.25;;
75062;SDS011;63981;51.052;13.754;2023-01-05T08:01:56;3.58;;;1.10;;
75062;SDS011;63981;51.052;13.754;2023-01-05T08:04:23;3.25;;;1.35;;
75062;SDS011;63981;51.052;13.754;2023-01-05T08:06:49;5.00;;;1.30;;
75062;SDS011;63981;51.052;13.754;2023-01-05T08:09:15;6.78;;;1.30;;
75062;SDS011;63981;51.052;13.754;2023-01-05T08:12:00;4.93;;;1.25;;
75062;SDS011;63981;51.052;13.754;2023-01-05T08:14:26;3.85;;;0.75;;
75062;SDS011;63981;51.052;13.754;2023-01-05T08:16:52;3.83;;;1.00;;
75062;SDS011;63981;51.052;13.754;2023-01-05T08:19:18;6.25;;;1.15;;
75062;SDS011;63981;51.052;13.754;2023-01-05T08:21:44;4.53;;;1.20;;
75062;SDS011;63981;51.052;13.754;2023-01-05T08:24:09;3.55;;;1.08;;
75062;SDS011;63981;51.052;13.754;2023-01-05T08:26:35;5.32;;;1.00;;
75062;SDS011;63981;51.052;13.754;2023-01-05T08:29:01;4.97;;;1.50;;
75062;SDS011;63981;51.052;13.754;2023-01-05T08:31:28;4.68;;;1.08;;
75062;SDS011;63981;51.052;13.754;2023-01-05T08:33:57;4.75;;;1.23;;
75062;SDS011;63981;51.052;13.754;2023-01-05T08:36:24;5.70;;;1.35;;
75062;SDS011;63981;51.052;13.754;2023-01-05T08:38:51;4.55;;;1.42;;
75062;SDS011;63981;51.052;13.754;2023-01-05T08:41:26;3.13;;;0.93;;
75062;SDS011;63981;51.052;13.754;2023-01-05T08:43:55;5.07;;;1.20;;
75062;SDS011;63981;51.052;13.754;2023-01-05T08:46:24;2.97;;;1.00;;
75062;SDS011;63981;51.052;13.754;2023-01-05T08:48:53;4.03;;;0.82;;
75062;SDS011;63981;51.052;13.754;2023-01-05T08:51:20;5.82;;;1.13;;
75062;SDS011;63981;51.052;13.754;2023-01-05T08:53:47;5.00;;;1.70;;
75062;SDS011;63981;51.052;13.754;2023-01-05T08:56:13;4.20;;;0.80;;
75062;SDS011;63981;51.052;13.754;2023-01-05T08:58:39;5.22;;;0.85;;
75062;SDS011;63981;51.052;13.754;2023-01-05T09:01:09;4.88;;;1.73;;
75062;SDS011;63981;51.052;13.754;2023-01-05T09:03:37;3.88;;;1.20;;
75062;SDS011;63981;51.052;13.754;2023-01-05T09:06:04;4.57;;;1.20;;
75062;SDS011;63981;51.052;13.754;2023-01-05T09:08:32;3.78;;;1.30;;
75062;SDS011;63981;51.052;13.754;2023-01-05T09:11:05;1.98;;;0.82;;
75062;SDS011;63981;51.052;13.754;2023-01-05T09:13:32;5.80;;;1.67;;
75062;SDS011;63981;51.052;13.754;2023-01-05T09:16:02;2.72;;;0.90;;
75062;SDS011;63981;51.052;13.754;2023-01-05T09:18:29;3.17;;;1.67;;
75062;SDS011;63981;51.052;13.754;2023-01-05T09:20:55;4.82;;;1.13;;
75062;SDS011;63981;51.052;13.754;2023-01-05T09:23:39;6.55;;;1.10;;
75062;SDS011;63981;51.052;13.754;2023-01-05T09:26:07;6.70;;;1.15;;
75062;SDS011;63981;51.052;13.754;2023-01-05T09:28:38;6.47;;;1.30;;
75062;SDS011;63981;51.052;13.754;2023-01-05T09:31:14;3.25;;;1.17;;
75062;SDS011;63981;51.052;13.754;2023-01-05T09:33:42;7.07;;;1.17;;
75062;SDS011;63981;51.052;13.754;2023-01-05T09:36:08;5.70;;;1.40;;
75062;SDS011;63981;51.052;13.754;2023-01-05T09:38:35;5.22;;;1.63;;
75062;SDS011;63981;51.052;13.754;2023-01-05T09:41:05;6.28;;;1.17;;
75062;SDS011;63981;51.052;13.754;2023-01-05T09:43:38;5.38;;;1.10;;
75062;SDS011;63981;51.052;13.754;2023-01-05T09:46:14;3.88;;;0.98;;
75062;SDS011;63981;51.052;13.754;2023-01-05T09:48:46;4.05;;;1.20;;
75062;SDS011;63981;51.052;13.754;2023-01-05T09:51:16;5.55;;;1.10;;
75062;SDS011;63981;51.052;13.754;2023-01-05T09:53:42;5.53;;;1.63;;
75062;SDS011;63981;51.052;13.754;2023-01-05T09:56:24;5.53;;;1.02;;
75062;SDS011;63981;51.052;13.754;2023-01-05T09:58:54;6.43;;;1.58;;
75062;SDS011;63981;51.052;13.754;2023-01-05T10:01:29;4.80;;;1.20;;
75062;SDS011;63981;51.052;13.754;2023-01-05T10:03:58;4.18;;;0.90;;
75062;SDS011;63981;51.052;13.754;2023-01-05T10:06:33;3.67;;;1.00;;
75062;SDS011;63981;51.052;13.754;2023-01-05T10:09:03;3.08;;;1.02;;
75062;SDS011;63981;51.052;13.754;2023-01-05T10:14:36;4.53;;;0.98;;
75062;SDS011;63981;51.052;13.754;2023-01-05T10:17:11;3.70;;;0.63;;
75062;SDS011;63981;51.052;13.754;2023-01-05T10:19:51;2.40;;;0.57;;
75062;SDS011;63981;51.052;13.754;2023-01-05T10:25:19;3.42;;;0.90;;
75062;SDS011;63981;51.052;13.754;2023-01-05T10:33:40;2.60;;;0.90;;
75062;SDS011;63981;51.052;13.754;2023-01-05T10:36:27;3.53;;;0.75;;
75062;SDS011;63981;51.052;13.754;2023-01-05T10:47:06;1.50;;;0.77;;
75062;SDS011;63981;51.052;13.754;2023-01-05T10:49:33;3.33;;;1.08;;
75062;SDS011;63981;51.052;13.754;2023-01-05T10:51:59;2.58;;;0.65;;
75062;SDS011;63981;51.052;13.754;2023-01-05T10:56:54;3.75;;;1.20;;
75062;SDS011;63981;51.052;13.754;2023-01-05T10:59:20;3.20;;;1.02;;
75062;SDS011;63981;51.052;13.754;2023-01-05T11:01:46;2.83;;;0.75;;
75062;SDS011;63981;51.052;13.754;2023-01-05T11:04:23;3.47;;;0.63;;
75062;SDS011;63981;51.052;13.754;2023-01-05T11:06:49;4.18;;;1.30;;
75062;SDS011;63981;51.052;13.754;2023-01-05T11:09:20;4.22;;;1.00;;
75062;SDS011;63981;51.052;13.754;2023-01-05T11:11:54;3.40;;;0.75;;
75062;SDS011;63981;51.052;13.754;2023-01-05T11:14:21;4.40;;;1.00;;
75062;SDS011;63981;51.052;13.754;2023-01-05T11:16:51;1.98;;;0.75;;
75062;SDS011;63981;51.052;13.754;2023-01-05T11:19:21;3.05;;;0.93;;
75062;SDS011;63981;51.052;13.754;2023-01-05T11:21:51;4.05;;;0.95;;
75062;SDS011;63981;51.052;13.754;2023-01-05T11:29:16;4.30;;;0.85;;
75062;SDS011;63981;51.052;13.754;2023-01-05T11:31:44;3.15;;;0.68;;
75062;SDS011;63981;51.052;13.754;2023-01-05T11:39:27;3.70;;;0.88;;
75062;SDS011;63981;51.052;13.754;2023-01-05T11:42:08;5.07;;;1.15;;
75062;SDS011;63981;51.052;13.754;2023-01-05T11:44:42;2.33;;;0.70;;
75062;SDS011;63981;51.052;13.754;2023-01-05T11:47:17;3.63;;;0.90;;
75062;SDS011;63981;51.052;13.754;2023-01-05T11:50:01;4.05;;;0.80;;
75062;SDS011;63981;51.052;13.754;2023-01-05T11:55:28;3.78;;;0.80;;
75062;SDS011;63981;51.052;13.754;2023-01-05T12:03:24;2.17;;;0.90;;
75062;SDS011;63981;51.052;13.754;2023-01-05T12:16:53;4.97;;;1.17;;
75062;SDS011;63981;51.052;13.754;2023-01-05T12:30:28;2.00;;;0.80;;
75062;SDS011;63981;51.052;13.754;2023-01-05T12:33:09;1.92;;;0.60;;
75062;SDS011;63981;51.052;13.754;2023-01-05T12:46:37;4.75;;;1.77;;
75062;SDS011;63981;51.052;13.754;2023-01-05T12:49:18;2.05;;;0.95;;
75062;SDS011;63981;51.052;13.754;2023-01-05T12:51:52;4.18;;;1.08;;
75062;SDS011;63981;51.052;13.754;2023-01-05T12:54:29;2.45;;;1.40;;
75062;SDS011;63981;51.052;13.754;2023-01-05T12:57:12;2.45;;;0.98;;
75062;SDS011;63981;51.052;13.754;2023-01-05T13:02:36;3.70;;;1.00;;
75062;SDS011;63981;51.052;13.754;2023-01-05T13:08:06;2.58;;;0.85;;
75062;SDS011;63981;51.052;13.754;2023-01-05T13:13:54;3.15;;;1.00;;
75062;SDS011;63981;51.052;13.754;2023-01-05T13:16:22;4.30;;;1.00;;
75062;SDS011;63981;51.052;13.754;2023-01-05T13:18:54;2.75;;;0.77;;
75062;SDS011;63981;51.052;13.754;2023-01-05T13:21:24;3.75;;;0.70;;
75062;SDS011;63981;51.052;13.754;2023-01-05T13:23:53;2.83;;;0.90;;
75062;SDS011;63981;51.052;13.754;2023-01-05T13:26:22;2.40;;;1.05;;
75062;SDS011;63981;51.052;13.754;2023-01-05T13:28:50;3.80;;;1.17;;
75062;SDS011;63981;51.052;13.754;2023-01-05T13:39:25;2.22;;;1.15;;
75062;SDS011;63981;51.052;13.754;2023-01-05T13:53:50;3.60;;;1.05;;
75062;SDS011;63981;51.052;13.754;2023-01-05T13:56:23;3.13;;;0.98;;
75062;SDS011;63981;51.052;13.754;2023-01-05T13:58:57;3.47;;;0.82;;
75062;SDS011;63981;51.052;13.754;2023-01-05T14:04:04;4.32;;;0.75;;
75062;SDS011;63981;51.052;13.754;2023-01-05T14:06:42;3.53;;;1.10;;
75062;SDS011;63981;51.052;13.754;2023-01-05T14:09:15;6.47;;;1.20;;
75062;SDS011;63981;51.052;13.754;2023-01-05T14:12:22;5.35;;;1.30;;
75062;SDS011;63981;51.052;13.754;2023-01-05T14:14:57;2.58;;;1.00;;
75062;SDS011;63981;51.052;13.754;2023-01-05T14:25:54;5.32;;;1.58;;
75062;SDS011;63981;51.052;13.754;2023-01-05T14:31:38;5.45;;;1.35;;
75062;SDS011;63981;51.052;13.754;2023-01-05T14:33:51;4.28;;;1.50;;
75062;SDS011;63981;51.052;13.754;2023-01-05T14:38:54;4.40;;;1.27;;
75062;SDS011;63981;51.052;13.754;2023-01-05T14:41:21;4.57;;;1.55;;
75062;SDS011;63981;51.052;13.754;2023-01-05T14:44:32;3.72;;;0.80;;
75062;SDS011;63981;51.052;13.754;2023-01-05T14:46:48;2.58;;;0.75;;
75062;SDS011;63981;51.052;13.754;2023-01-05T14:49:39;3.63;;;0.90;;
75062;SDS011;63981;51.052;13.754;2023-01-05T14:52:13;3.13;;;1.13;;
75062;SDS011;63981;51.052;13.754;2023-01-05T15:00:03;2.40;;;0.90;;
75062;SDS011;63981;51.052;13.754;2023-01-05T15:02:34;1.60;;;0.50;;
75062;SDS011;63981;51.052;13.754;2023-01-05T15:05:10;1.70;;;0.70;;
75062;SDS011;63981;51.052;13.754;2023-01-05T15:08:14;2.15;;;0.70;;
75062;SDS011;63981;51.052;13.754;2023-01-05T15:19:38;1.40;;;0.73;;
75062;SDS011;63981;51.052;13.754;2023-01-05T15:30:21;1.20;;;0.82;;
75062;SDS011;63981;51.052;13.754;2023-01-05T15:33:38;1.83;;;1.13;;
75062;SDS011;63981;51.052;13.754;2023-01-05T15:36:04;2.10;;;0.70;;
75062;SDS011;63981;51.052;13.754;2023-01-05T15:38:30;2.22;;;0.60;;
75062;SDS011;63981;51.052;13.754;2023-01-05T15:41:09;3.28;;;0.70;;
75062;SDS011;63981;51.052;13.754;2023-01-05T15:43:39;1.27;;;0.40;;
75062;SDS011;63981;51.052;13.754;2023-01-05T15:46:07;0.80;;;0.55;;
75062;SDS011;63981;51.052;13.754;2023-01-05T15:48:41;0.55;;;0.38;;
75062;SDS011;63981;51.052;13.754;2023-01-05T15:51:09;0.95;;;0.43;;
75062;SDS011;63981;51.052;13.754;2023-01-05T15:53:51;1.08;;;0.70;;
75062;SDS011;63981;51.052;13.754;2023-01-05T15:56:33;0.60;;;0.47;;
75062;SDS011;63981;51.052;13.754;2023-01-05T15:59:01;1.58;;;0.50;;
75062;SDS011;63981;51.052;13.754;2023-01-05T16:01:28;0.88;;;0.50;;
75062;SDS011;63981;51.052;13.754;2023-01-05T16:04:05;1.60;;;0.80;;
75062;SDS011;63981;51.052;13.754;2023-01-05T16:06:32;1.65;;;0.50;;
75062;SDS011;63981;51.052;13.754;2023-01-05T16:09:07;2.05;;;0.32;;
75062;SDS011;63981;51.052;13.754;2023-01-05T16:11:37;1.90;;;0.50;;
75062;SDS011;63981;51.052;13.754;2023-01-05T16:14:16;2.05;;;0.50;;
75062;SDS011;63981;51.052;13.754;2023-01-05T16:16:56;3.15;;;0.60;;
75062;SDS011;63981;51.052;13.754;2023-01-05T16:19:48;1.15;;;0.60;;
75062;SDS011;63981;51.052;13.754;2023-01-05T16:27:30;1.85;;;0.40;;
75062;SDS011;63981;51.052;13.754;2023-01-05T16:30:12;1.05;;;0.40;;
75062;SDS011;63981;51.052;13.754;2023-01-05T16:32:41;0.85;;;0.20;;
75062;SDS011;63981;51.052;13.754;2023-01-05T16:35:20;1.88;;;0.57;;
75062;SDS011;63981;51.052;13.754;2023-01-05T16:38:05;1.05;;;0.40;;
75062;SDS011;63981;51.052;13.754;2023-01-05T16:40:31;1.95;;;0.22;;
75062;SDS011;63981;51.052;13.754;2023-01-05T16:42:59;0.70;;;0.40;;
75062;SDS011;63981;51.052;13.754;2023-01-05T16:45:26;0.55;;;0.40;;
75062;SDS011;63981;51.052;13.754;2023-01-05T16:47:55;2.22;;;0.40;;
75062;SDS011;63981;51.052;13.754;2023-01-05T16:52:50;0.60;;;0.60;;
75062;SDS011;63981;51.052;13.754;2023-01-05T16:55:37;2.38;;;0.70;;
75062;SDS011;63981;51.052;13.754;2023-01-05T16:58:05;1.27;;;0.28;;
75062;SDS011;63981;51.052;13.754;2023-01-05T17:00:49;1.00;;;0.40;;
75062;SDS011;63981;51.052;13.754;2023-01-05T17:05:49;1.20;;;0.60;;
75062;SDS011;63981;51.052;13.754;2023-01-05T17:08:20;1.90;;;0.45;;
75062;SDS011;63981;51.052;13.754;2023-01-05T17:10:49;0.73;;;0.30;;
75062;SDS011;63981;51.052;13.754;2023-01-05T17:13:16;2.30;;;0.38;;
75062;SDS011;63981;51.052;13.754;2023-01-05T17:15:45;1.90;;;0.70;;
75062;SDS011;63981;51.052;13.754;2023-01-05T17:18:16;0.63;;;0.22;;
75062;SDS011;63981;51.052;13.754;2023-01-05T17:20:45;1.90;;;0.40;;
75062;SDS011;63981;51.052;13.754;2023-01-05T17:25:49;0.60;;;0.30;;
75062;SDS011;63981;51.052;13.754;2023-01-05T17:28:19;1.75;;;0.55;;
75062;SDS011;63981;51.052;13.754;2023-01-05T17:30:49;0.88;;;0.43;;
75062;SDS011;63981;51.052;13.754;2023-01-05T17:33:15;0.82;;;0.40;;
75062;SDS011;63981;51.052;13.754;2023-01-05T17:35:42;2.47;;;1.25;;
75062;SDS011;63981;51.052;13.754;2023-01-05T17:38:12;1.25;;;0.47;;
75062;SDS011;63981;51.052;13.754;2023-01-05T17:40:38;0.75;;;0.50;;
75062;SDS011;63981;51.052;13.754;2023-01-05T17:43:05;1.05;;;0.60;;
75062;SDS011;63981;51.052;13.754;2023-01-05T17:45:31;1.83;;;0.43;;
75062;SDS011;63981;51.052;13.754;2023-01-05T17:47:58;1.15;;;0.40;;
75062;SDS011;63981;51.052;13.754;2023-01-05T17:50:27;0.75;;;0.40;;
75062;SDS011;63981;51.052;13.754;2023-01-05T17:52:59;0.95;;;0.40;;
75062;SDS011;63981;51.052;13.754;2023-01-05T17:55:26;3.28;;;1.50;;
75062;SDS011;63981;51.052;13.754;2023-01-05T17:57:53;1.27;;;0.57;;
75062;SDS011;63981;51.052;13.754;2023-01-05T18:00:21;1.40;;;0.52;;
75062;SDS011;63981;51.052;13.754;2023-01-05T18:02:48;0.98;;;0.60;;
75062;SDS011;63981;51.052;13.754;2023-01-05T18:05:14;2.45;;;0.88;;
75062;SDS011;63981;51.052;13.754;2023-01-05T18:07:41;2.88;;;0.77;;
75062;SDS011;63981;51.052;13.754;2023-01-05T18:10:09;1.15;;;0.50;;
75062;SDS011;63981;51.052;13.754;2023-01-05T18:12:37;4.35;;;0.88;;
75062;SDS011;63981;51.052;13.754;2023-01-05T18:15:04;1.23;;;0.70;;
75062;SDS011;63981;51.052;13.754;2023-01-05T18:17:30;3.40;;;0.55;;
75062;SDS011;63981;51.052;13.754;2023-01-05T18:19:56;1.27;;;0.50;;
75062;SDS011;63981;51.052;13.754;2023-01-05T18:22:22;1.27;;;0.50;;
75062;SDS011;63981;51.052;13.754;2023-01-05T18:24:48;1.42;;;0.60;;
75062;SDS011;63981;51.052;13.754;2023-01-05T18:27:14;2.75;;;0.50;;
75062;SDS011;63981;51.052;13.754;2023-01-05T18:29:40;2.58;;;0.57;;
75062;SDS011;63981;51.052;13.754;2023-01-05T18:32:07;1.65;;;0.43;;
75062;SDS011;63981;51.052;13.754;2023-01-05T18:34:34;2.58;;;0.52;;
75062;SDS011;63981;51.052;13.754;2023-01-05T18:37:00;2.38;;;0.50;;
75062;SDS011;63981;51.052;13.754;2023-01-05T18:39:26;2.72;;;0.47;;
75062;SDS011;63981;51.052;13.754;2023-01-05T18:41:53;1.80;;;0.50;;
75062;SDS011;63981;51.052;13.754;2023-01-05T18:44:19;1.38;;;0.60;;
75062;SDS011;63981;51.052;13.754;2023-01-05T18:46:45;0.98;;;0.50;;
75062;SDS011;63981;51.052;13.754;2023-01-05T18:49:11;1.10;;;0.65;;
75062;SDS011;63981;51.052;13.754;2023-01-05T18:51:38;2.35;;;0.60;;
75062;SDS011;63981;51.052;13.754;2023-01-05T18:54:04;2.35;;;0.68;;
75062;SDS011;63981;51.052;13.754;2023-01-05T18:56:31;1.92;;;0.60;;
75062;SDS011;63981;51.052;13.754;2023-01-05T18:58:57;1.00;;;0.63;;
75062;SDS011;63981;51.052;13.754;2023-01-05T19:01:23;1.40;;;0.50;;
75062;SDS011;63981;51.052;13.754;2023-01-05T19:03:50;1.23;;;0.57;;
75062;SDS011;63981;51.052;13.754;2023-01-05T19:06:21;1.25;;;0.50;;
75062;SDS011;63981;51.052;13.754;2023-01-05T19:08:49;3.03;;;0.40;;
75062;SDS011;63981;51.052;13.754;2023-01-05T19:13:41;2.88;;;0.60;;
75062;SDS011;63981;51.052;13.754;2023-01-05T19:16:09;2.05;;;0.35;;
75062;SDS011;63981;51.052;13.754;2023-01-05T19:18:35;1.23;;;0.47;;
75062;SDS011;63981;51.052;13.754;2023-01-05T19:21:01;1.55;;;0.75;;
75062;SDS011;63981;51.052;13.754;2023-01-05T19:23:27;2.17;;;0.43;;
75062;SDS011;63981;51.052;13.754;2023-01-05T19:25:58;1.50;;;0.60;;
75062;SDS011;63981;51.052;13.754;2023-01-05T19:28:26;0.88;;;0.45;;
75062;SDS011;63981;51.052;13.754;2023-01-05T19:30:52;2.33;;;0.60;;
75062;SDS011;63981;51.052;13.754;2023-01-05T19:33:18;1.10;;;0.45;;
75062;SDS011;63981;51.052;13.754;2023-01-05T19:35:44;1.05;;;0.35;;
75062;SDS011;63981;51.052;13.754;2023-01-05T19:38:10;2.50;;;0.57;;
75062;SDS011;63981;51.052;13.754;2023-01-05T19:40:36;2.22;;;0.60;;
75062;SDS011;63981;51.052;13.754;2023-01-05T19:43:01;1.63;;;0.52;;
75062;SDS011;63981;51.052;13.754;2023-01-05T19:45:27;1.48;;;0.50;;
75062;SDS011;63981;51.052;13.754;2023-01-05T19:47:53;1.42;;;0.40;;
75062;SDS011;63981;51.052;13.754;2023-01-05T19:50:19;1.40;;;0.88;;
75062;SDS011;63981;51.052;13.754;2023-01-05T19:52:45;3.90;;;0.60;;
75062;SDS011;63981;51.052;13.754;2023-01-05T19:55:11;0.98;;;0.40;;
75062;SDS011;63981;51.052;13.754;2023-01-05T19:57:37;1.00;;;0.40;;
75062;SDS011;63981;51.052;13.754;2023-01-05T20:00:03;0.52;;;0.40;;